createdAt,value
2022-12-16T00:01:08.108Z,97439.13
2022-12-16T00:03:35.602Z,97434.81
2022-12-16T00:06:04.424Z,97449.31
2022-12-16T00:08:35.051Z,97465.47
2022-12-16T00:11:01.689Z,97479.91
2022-12-16T00:13:28.595Z,97487.56
2022-12-16T00:15:55.128Z,97496.88
2022-12-16T00:18:21.663Z,97501.97
2022-12-16T00:20:49.236Z,97504.50
2022-12-16T00:23:15.777Z,97500.28
2022-12-16T00:25:43.334Z,97517.28
2022-12-16T00:28:10.375Z,97531.72
2022-12-16T00:30:36.739Z,97549.56
2022-12-16T00:33:03.246Z,97552.97
2022-12-16T00:35:30.381Z,97552.13
2022-12-16T00:37:57.047Z,97552.97
2022-12-16T00:40:23.410Z,97552.97
2022-12-16T00:42:49.764Z,97551.28
2022-12-16T00:45:16.206Z,97552.13
2022-12-16T00:47:44.034Z,97541.94
2022-12-16T00:50:11.249Z,97532.63
2022-12-16T00:52:37.956Z,97541.13
2022-12-16T00:55:04.683Z,97530.94
2022-12-16T00:57:31.031Z,97531.78
2022-12-16T00:59:57.419Z,97521.59
2022-12-16T01:02:23.874Z,97524.16
2022-12-16T01:04:50.468Z,97522.44
2022-12-16T01:07:16.890Z,97501.22
2022-12-16T01:09:43.270Z,97522.44
2022-12-16T01:12:09.661Z,97542.81
2022-12-16T01:14:36.031Z,97561.53
2022-12-16T01:17:02.405Z,97583.63
2022-12-16T01:19:28.751Z,97596.34
2022-12-16T01:21:55.095Z,97597.19
2022-12-16T01:24:21.441Z,97604.81
2022-12-16T01:26:47.798Z,97598.88
2022-12-16T01:29:14.157Z,97590.38
2022-12-16T01:31:40.556Z,97583.56
2022-12-16T01:34:06.973Z,97566.63
2022-12-16T01:36:33.352Z,97567.50
2022-12-16T01:38:59.750Z,97566.63
2022-12-16T01:41:26.177Z,97575.13
2022-12-16T01:43:52.517Z,97587.03
2022-12-16T01:46:21.688Z,97595.47
2022-12-16T01:48:52.083Z,97602.25
2022-12-16T01:51:23.880Z,97602.28
2022-12-16T01:53:50.412Z,97603.97
2022-12-16T01:56:17.018Z,97618.41
2022-12-16T01:58:43.421Z,97631.13
2022-12-16T02:01:10.051Z,97651.50
2022-12-16T02:03:37.325Z,97651.50
2022-12-16T02:06:04.680Z,97637.91
2022-12-16T02:08:31.093Z,97615.00
2022-12-16T02:11:00.236Z,97612.47
2022-12-16T02:13:40.731Z,97628.56
2022-12-16T02:16:18.685Z,97647.28
2022-12-16T02:19:02.716Z,97666.78
2022-12-16T02:21:46.572Z,97687.13
2022-12-16T02:24:31.205Z,97695.63
2022-12-16T02:27:06.586Z,97704.09
2022-12-16T02:29:42.148Z,97710.00
2022-12-16T02:32:14.350Z,97685.47
2022-12-16T02:34:46.876Z,97652.44
2022-12-16T02:37:32.050Z,97657.50
2022-12-16T02:40:03.046Z,97649.88
2022-12-16T02:42:40.230Z,97646.47
2022-12-16T02:45:27.396Z,97645.63
2022-12-16T02:47:53.848Z,97658.38
2022-12-16T02:50:35.333Z,97682.09
2022-12-16T02:53:02.332Z,97704.13
2022-12-16T02:55:55.908Z,97712.59
2022-12-16T02:58:43.664Z,97709.22
2022-12-16T03:01:16.243Z,97713.44
2022-12-16T03:03:54.757Z,97722.75
2022-12-16T03:06:21.124Z,97728.69
2022-12-16T03:08:50.343Z,97732.09
2022-12-16T03:11:16.713Z,97755.81
2022-12-16T03:13:46.148Z,97760.88
2022-12-16T03:16:14.032Z,97749.88
2022-12-16T03:18:43.612Z,97753.25
2022-12-16T03:21:10.096Z,97753.28
2022-12-16T03:23:58.645Z,97755.78
2022-12-16T03:26:50.188Z,97763.41
2022-12-16T03:29:19.059Z,97756.66
2022-12-16T03:31:49.792Z,97770.19
2022-12-16T03:34:49.257Z,97764.28
2022-12-16T03:37:15.629Z,97760.06
2022-12-16T03:39:50.131Z,97748.19
2022-12-16T03:42:16.605Z,97742.25
2022-12-16T03:44:43.780Z,97759.19
2022-12-16T03:47:11.041Z,97765.13
2022-12-16T03:49:37.385Z,97788.00
2022-12-16T03:52:03.837Z,97785.44
2022-12-16T03:54:30.212Z,97744.81
2022-12-16T03:56:57.061Z,97724.50
2022-12-16T03:59:23.529Z,97718.53
2022-12-16T04:01:50.281Z,97732.94
2022-12-16T04:04:17.252Z,97739.72
2022-12-16T04:10:49.714Z,97761.72
2022-12-16T04:13:34.965Z,97756.66
2022-12-16T04:16:20.444Z,97777.84
2022-12-16T04:19:05.530Z,97789.69
2022-12-16T04:21:50.330Z,97802.38
2022-12-16T04:24:22.400Z,97807.44
2022-12-16T04:27:14.865Z,97815.91
2022-12-16T04:30:02.300Z,97824.38
2022-12-16T04:32:48.832Z,97827.78
2022-12-16T04:35:33.914Z,97834.53
2022-12-16T04:38:18.575Z,97824.38
2022-12-16T04:41:03.374Z,97829.47
2022-12-16T04:43:48.183Z,97841.31
2022-12-16T04:46:32.974Z,97854.84
2022-12-16T04:49:18.049Z,97859.97
2022-12-16T04:52:03.017Z,97860.75
2022-12-16T04:54:48.197Z,97868.38
2022-12-16T04:57:32.907Z,97849.78
2022-12-16T05:00:17.676Z,97830.28
2022-12-16T05:03:02.525Z,97855.69
2022-12-16T05:05:47.456Z,97863.31
2022-12-16T05:08:32.153Z,97849.81
2022-12-16T05:11:16.819Z,97837.06
2022-12-16T05:14:01.699Z,97848.09
2022-12-16T05:16:46.369Z,97864.19
2022-12-16T05:19:31.828Z,97873.47
2022-12-16T05:22:16.911Z,97863.31
2022-12-16T05:25:01.719Z,97865.84
2022-12-16T05:27:46.662Z,97878.56
2022-12-16T05:30:33.834Z,97895.50
2022-12-16T05:33:19.185Z,97912.41
2022-12-16T05:36:04.211Z,97912.41
2022-12-16T05:38:49.088Z,97904.78
2022-12-16T05:41:34.137Z,97881.97
2022-12-16T05:44:19.305Z,97874.34
2022-12-16T05:47:04.122Z,97863.34
2022-12-16T05:49:49.309Z,97835.41
2022-12-16T05:52:34.098Z,97798.97
2022-12-16T05:55:19.177Z,97748.13
2022-12-16T05:58:08.089Z,97718.47
2022-12-16T06:00:53.034Z,97695.56
2022-12-16T06:03:38.580Z,97680.28
2022-12-16T06:06:24.012Z,97671.75
2022-12-16T06:09:09.002Z,97659.84
2022-12-16T06:11:54.286Z,97635.25
2022-12-16T06:14:39.267Z,97605.50
2022-12-16T06:17:24.227Z,97575.75
2022-12-16T06:20:09.118Z,97586.78
2022-12-16T06:22:53.820Z,97571.47
2022-12-16T06:25:38.725Z,97559.53
2022-12-16T06:28:23.859Z,97552.72
2022-12-16T06:31:08.985Z,97536.56
2022-12-16T06:33:55.063Z,97497.44
2022-12-16T06:36:40.545Z,97496.53
2022-12-16T06:39:25.506Z,97489.78
2022-12-16T06:42:10.516Z,97482.22
2022-12-16T06:44:55.240Z,97458.41
2022-12-16T06:47:40.058Z,97456.66
2022-12-16T06:50:25.508Z,97469.41
2022-12-16T06:53:10.143Z,97471.06
2022-12-16T06:55:55.069Z,97482.06
2022-12-16T06:58:39.827Z,97483.81
2022-12-16T07:01:25.063Z,97492.25
2022-12-16T07:04:10.037Z,97507.66
2022-12-16T07:06:54.753Z,97518.72
2022-12-16T07:09:39.761Z,97549.28
2022-12-16T07:12:24.542Z,97562.88
2022-12-16T07:15:09.603Z,97581.56
2022-12-16T07:17:54.588Z,97598.56
2022-12-16T07:20:39.471Z,97611.31
2022-12-16T07:23:24.545Z,97610.44
2022-12-16T07:26:09.266Z,97610.41
2022-12-16T07:28:54.008Z,97622.28
2022-12-16T07:31:39.120Z,97622.28
2022-12-16T07:34:24.359Z,97616.28
2022-12-16T07:37:09.427Z,97612.03
2022-12-16T07:39:55.386Z,97625.56
2022-12-16T07:42:41.498Z,97618.72
2022-12-16T07:45:27.232Z,97614.44
2022-12-16T07:48:12.213Z,97605.03
2022-12-16T07:50:57.375Z,97595.69
2022-12-16T07:53:42.802Z,97601.63
2022-12-16T07:56:27.712Z,97590.56
2022-12-16T07:59:13.168Z,97569.28
2022-12-16T08:01:58.065Z,97554.00
2022-12-16T08:04:43.270Z,97521.72
2022-12-16T08:07:28.377Z,97494.41
2022-12-16T08:10:13.047Z,97472.19
2022-12-16T08:12:58.026Z,97449.97
2022-12-16T08:15:43.127Z,97426.91
2022-12-16T08:18:27.873Z,97391.97
2022-12-16T08:21:12.855Z,97378.28
2022-12-16T08:23:57.595Z,97357.78
2022-12-16T08:26:42.574Z,97339.84
2022-12-16T08:29:45.138Z,97301.50
2022-12-16T08:32:31.090Z,97270.63
2022-12-16T08:35:16.098Z,97262.06
2022-12-16T08:38:01.209Z,97256.75
2022-12-16T08:40:46.240Z,97232.75
2022-12-16T08:43:31.596Z,97203.59
2022-12-16T08:46:16.755Z,97208.44
2022-12-16T08:49:01.531Z,97191.25
2022-12-16T08:51:48.186Z,97180.97
2022-12-16T08:54:32.976Z,97165.44
2022-12-16T08:57:18.302Z,97156.78
2022-12-16T09:00:03.292Z,97156.78
2022-12-16T09:02:48.236Z,97119.16
2022-12-16T09:05:33.311Z,97102.75
2022-12-16T09:08:19.005Z,97101.78
2022-12-16T09:11:04.284Z,97093.06
2022-12-16T09:13:49.048Z,97065.59
2022-12-16T09:16:34.188Z,97028.72
2022-12-16T09:19:19.049Z,97011.41
2022-12-16T09:22:03.667Z,97000.16
2022-12-16T09:24:48.692Z,96975.28
2022-12-16T09:27:33.468Z,96960.53
2022-12-16T09:30:18.579Z,96973.22
2022-12-16T09:33:03.580Z,96972.25
2022-12-16T09:35:48.676Z,96954.94
2022-12-16T09:38:34.549Z,96951.41
2022-12-16T09:41:48.745Z,96942.69
2022-12-16T09:44:46.094Z,96927.06
2022-12-16T09:47:47.086Z,96902.94
2022-12-16T09:50:38.840Z,96887.31
2022-12-16T09:53:24.240Z,96895.78
2022-12-16T09:56:09.268Z,96883.69
2022-12-16T09:58:58.437Z,96858.72
2022-12-16T10:01:43.510Z,96840.63
2022-12-16T10:04:28.669Z,96832.06
2022-12-16T10:07:20.404Z,96837.25
2022-12-16T10:10:27.717Z,96833.53
2022-12-16T10:13:20.772Z,96825.78
2022-12-16T10:16:27.710Z,96822.34
2022-12-16T10:19:18.627Z,96810.94
2022-12-16T10:22:12.095Z,96778.25
2022-12-16T10:25:36.160Z,96788.72
2022-12-16T10:28:34.081Z,96787.03
2022-12-16T10:31:20.681Z,96769.78
2022-12-16T10:34:08.058Z,96738.00
2022-12-16T10:36:55.030Z,96743.84
2022-12-16T10:39:40.066Z,96750.63
2022-12-16T10:42:25.930Z,96734.09
2022-12-16T10:45:14.467Z,96714.19
2022-12-16T10:47:59.507Z,96698.63
2022-12-16T10:50:44.589Z,96691.69
2022-12-16T10:53:34.460Z,96688.97
2022-12-16T10:56:57.646Z,96695.41
2022-12-16T10:59:42.930Z,96688.22
2022-12-16T11:02:34.311Z,96700.78
2022-12-16T11:05:19.374Z,96714.25
2022-12-16T11:08:04.456Z,96715.66
2022-12-16T11:10:56.254Z,96727.47
2022-12-16T11:13:49.566Z,96751.69
2022-12-16T11:16:42.365Z,96755.00
2022-12-16T11:19:47.379Z,96745.47
2022-12-16T11:22:32.514Z,96726.34
2022-12-16T11:25:35.931Z,96709.94
2022-12-16T11:28:28.941Z,96711.44
2022-12-16T11:31:15.177Z,96713.38
2022-12-16T11:34:00.319Z,96701.09
2022-12-16T11:36:45.340Z,96683.78
2022-12-16T11:39:35.296Z,96676.22
2022-12-16T11:42:20.325Z,96649.53
2022-12-16T11:45:10.450Z,96616.56
2022-12-16T11:47:56.451Z,96580.38
2022-12-16T11:50:42.609Z,96568.97
2022-12-16T11:53:53.041Z,96540.34
2022-12-16T11:56:45.394Z,96549.88
2022-12-16T11:59:41.039Z,96538.69
2022-12-16T12:02:41.891Z,96514.81
2022-12-16T12:05:31.168Z,96495.81
2022-12-16T12:08:24.308Z,96468.19
2022-12-16T12:11:23.567Z,96424.44
2022-12-16T12:14:23.989Z,96400.28
2022-12-16T12:17:24.496Z,96392.59
2022-12-16T12:20:26.002Z,96385.94
2022-12-16T12:23:11.068Z,96360.09
2022-12-16T12:26:08.791Z,96332.66
2022-12-16T12:29:07.070Z,96325.69
2022-12-16T12:32:12.555Z,96322.91
2022-12-16T12:35:08.572Z,96336.66
2022-12-16T12:38:05.882Z,96335.69
2022-12-16T12:41:07.069Z,96330.53
2022-12-16T12:44:18.313Z,96319.38
2022-12-16T12:47:06.193Z,96311.22
2022-12-16T12:50:16.970Z,96317.09
2022-12-16T12:53:11.077Z,96298.84
2022-12-16T12:56:26.485Z,96289.44
2022-12-16T12:59:12.812Z,96273.16
2022-12-16T13:02:00.110Z,96285.06
2022-12-16T13:04:45.293Z,96275.41
2022-12-16T13:07:30.417Z,96280.69
2022-12-16T13:10:44.073Z,96279.94
2022-12-16T13:13:35.965Z,96278.13
2022-12-16T13:16:22.348Z,96264.22
2022-12-16T13:19:09.775Z,96266.03
2022-12-16T13:21:56.139Z,96265.88
2022-12-16T13:24:41.637Z,96264.22
2022-12-16T13:27:32.923Z,96262.41
2022-12-16T13:30:45.116Z,96248.47
2022-12-16T13:33:43.739Z,96240.03
2022-12-16T13:36:28.692Z,96233.06
2022-12-16T13:39:14.900Z,96229.44
2022-12-16T13:41:59.745Z,96221.00
2022-12-16T13:45:03.029Z,96232.91
2022-12-16T13:48:13.955Z,96218.56
2022-12-16T13:51:00.836Z,96206.50
2022-12-16T13:53:56.156Z,96202.25
2022-12-16T13:56:55.826Z,96179.13
2022-12-16T13:59:42.207Z,96169.63
2022-12-16T14:02:38.484Z,96153.38
2022-12-16T14:05:33.770Z,96130.34
2022-12-16T14:08:18.693Z,96104.66
2022-12-16T14:11:03.759Z,96094.50
2022-12-16T14:14:10.769Z,96091.09
2022-12-16T14:17:23.550Z,96063.75
2022-12-16T14:20:12.367Z,96045.00
2022-12-16T14:23:54.601Z,96031.44
2022-12-16T14:26:33.374Z,95999.88
2022-12-16T14:29:19.372Z,95980.09
2022-12-16T14:32:04.338Z,95961.19
2022-12-16T14:34:53.474Z,95951.84
2022-12-16T14:37:43.538Z,95933.88
2022-12-16T14:40:47.207Z,95909.03
2022-12-16T14:43:42.547Z,95887.66
2022-12-16T14:46:46.372Z,95864.53
2022-12-16T14:49:41.962Z,95847.28
2022-12-16T14:52:45.736Z,95826.88
2022-12-16T14:55:48.769Z,95818.50
2022-12-16T14:58:35.529Z,95811.63
2022-12-16T15:01:31.898Z,95781.63
2022-12-16T15:04:17.272Z,95770.53
2022-12-16T15:07:04.492Z,95758.50
2022-12-16T15:09:52.043Z,95742.38
2022-12-16T15:12:40.081Z,95738.91
2022-12-16T15:15:27.635Z,95729.47
2022-12-16T15:18:14.283Z,95714.88
2022-12-16T15:21:07.934Z,95709.72
2022-12-16T15:23:55.217Z,95708.94
2022-12-16T15:26:42.191Z,95701.13
2022-12-16T15:29:49.214Z,95702.78
2022-12-16T15:32:43.125Z,95705.34
2022-12-16T15:35:44.222Z,95714.06
2022-12-16T15:38:35.545Z,95722.78
2022-12-16T15:41:21.369Z,95725.34
2022-12-16T15:44:06.444Z,95736.41
2022-12-16T15:46:51.541Z,95744.25
2022-12-16T15:49:45.703Z,95749.38
2022-12-16T15:52:49.065Z,95753.66
2022-12-16T15:56:04.207Z,95754.50
2022-12-16T15:58:51.687Z,95759.81
2022-12-16T16:01:41.326Z,95768.22
2022-12-16T16:04:45.868Z,95768.22
2022-12-16T16:07:37.472Z,95783.63
2022-12-16T16:10:39.013Z,95786.22
2022-12-16T16:13:24.258Z,95802.53
2022-12-16T16:16:09.264Z,95824.34
2022-12-16T16:18:54.274Z,95803.63
2022-12-16T16:21:39.229Z,95799.50
2022-12-16T16:24:24.335Z,95801.25
2022-12-16T16:27:09.340Z,95795.19
2022-12-16T16:29:54.410Z,95793.72
2022-12-16T16:32:59.123Z,95784.38
2022-12-16T16:35:44.013Z,95765.41
2022-12-16T16:38:32.121Z,95760.34
2022-12-16T16:41:17.108Z,95754.38
2022-12-16T16:44:02.048Z,95747.50
2022-12-16T16:46:46.902Z,95754.28
2022-12-16T16:49:34.964Z,95741.38
2022-12-16T16:52:19.968Z,95745.50
2022-12-16T16:55:04.748Z,95741.09
2022-12-16T16:57:51.336Z,95746.22
2022-12-16T17:00:36.366Z,95746.22
2022-12-16T17:03:21.339Z,95759.25
2022-12-16T17:06:06.487Z,95754.84
2022-12-16T17:08:51.292Z,95749.72
2022-12-16T17:11:37.397Z,95763.47
2022-12-16T17:14:22.176Z,95768.78
2022-12-16T17:17:06.905Z,95762.00
2022-12-16T17:19:52.019Z,95763.84
2022-12-16T17:22:36.709Z,95753.56
2022-12-16T17:25:21.830Z,95758.72
2022-12-16T17:28:06.481Z,95761.19
2022-12-16T17:30:51.182Z,95772.53
2022-12-16T17:33:36.361Z,95774.28
2022-12-16T17:36:21.632Z,95753.56
2022-12-16T17:39:06.750Z,95751.72
2022-12-16T17:41:51.817Z,95744.78
2022-12-16T17:44:36.856Z,95732.84
2022-12-16T17:47:21.711Z,95722.22
2022-12-16T17:50:06.758Z,95715.25
2022-12-16T17:52:51.503Z,95716.72
2022-12-16T17:55:43.761Z,95735.41
2022-12-16T17:58:30.859Z,95741.28
2022-12-16T18:01:23.382Z,95750.66
2022-12-16T18:04:08.772Z,95779.44
2022-12-16T18:06:53.823Z,95780.34
2022-12-16T18:09:39.093Z,95782.06
2022-12-16T18:12:24.108Z,95797.56
2022-12-16T18:15:08.859Z,95791.63
2022-12-16T18:17:53.640Z,95807.09
2022-12-16T18:20:38.401Z,95812.59
2022-12-16T18:23:23.196Z,95838.03
2022-12-16T18:26:18.158Z,95815.03
2022-12-16T18:29:03.055Z,95797.34
2022-12-16T18:31:47.869Z,95776.97
2022-12-16T18:34:33.147Z,95746.03
2022-12-16T18:37:17.862Z,95712.38
2022-12-16T18:40:02.927Z,95703.78
2022-12-16T18:42:47.659Z,95701.09
2022-12-16T18:45:32.740Z,95697.66
2022-12-16T18:48:17.749Z,95704.50
2022-12-16T18:51:02.786Z,95688.84
2022-12-16T18:53:47.932Z,95709.56
2022-12-16T18:56:32.899Z,95728.53
2022-12-16T18:59:17.796Z,95777.97
2022-12-16T19:02:02.597Z,95797.13
2022-12-16T19:04:47.741Z,95795.75
2022-12-16T19:07:36.972Z,95794.91
2022-12-16T19:10:22.232Z,95792.16
2022-12-16T19:13:07.047Z,95800.88
2022-12-16T19:15:52.418Z,95810.28
2022-12-16T19:18:37.748Z,95810.28
2022-12-16T19:21:22.802Z,95814.63
2022-12-16T19:24:07.693Z,95837.88
2022-12-16T19:26:52.906Z,95820.75
2022-12-16T19:29:41.584Z,95825.13
2022-12-16T19:32:26.441Z,95823.47
2022-12-16T19:35:11.131Z,95809.00
2022-12-16T19:37:57.070Z,95800.38
2022-12-16T19:40:42.025Z,95782.44
2022-12-16T19:43:26.837Z,95765.19
2022-12-16T19:46:12.634Z,95774.56
2022-12-16T19:48:57.873Z,95797.81
2022-12-16T19:51:53.503Z,95796.19
2022-12-16T19:54:41.192Z,95802.19
2022-12-16T19:57:26.024Z,95793.50
2022-12-16T20:00:11.093Z,95808.81
2022-12-16T20:02:56.799Z,95839.94
2022-12-16T20:05:41.893Z,95880.41
2022-12-16T20:08:26.604Z,95911.41
2022-12-16T20:11:11.333Z,95964.03
2022-12-16T20:13:56.244Z,96006.91
2022-12-16T20:16:41.420Z,96018.81
2022-12-16T20:19:26.237Z,96035.09
2022-12-16T20:22:14.508Z,96059.16
2022-12-16T20:25:01.495Z,96079.91
2022-12-16T20:27:46.301Z,96077.94
2022-12-16T20:30:31.106Z,96055.44
2022-12-16T20:33:15.890Z,96059.84
2022-12-16T20:36:00.669Z,96060.75
2022-12-16T20:38:45.640Z,96066.75
2022-12-16T20:41:30.362Z,96078.84
2022-12-16T20:44:15.476Z,96092.56
2022-12-16T20:47:00.562Z,96102.13
2022-12-16T20:49:45.361Z,96111.59
2022-12-16T20:52:30.338Z,96117.53
2022-12-16T20:55:15.081Z,96121.66
2022-12-16T20:58:00.124Z,96112.25
2022-12-16T21:00:45.278Z,96115.59
2022-12-16T21:03:30.134Z,96106.00
2022-12-16T21:06:14.729Z,96107.13
2022-12-16T21:08:59.587Z,96092.56
2022-12-16T21:11:44.345Z,96077.78
2022-12-16T21:14:29.138Z,96072.47
2022-12-16T21:17:14.090Z,96069.09
2022-12-16T21:19:59.002Z,96061.34
2022-12-16T21:22:43.798Z,96045.78
2022-12-16T21:25:28.533Z,96023.28
2022-12-16T21:28:17.083Z,96003.44
2022-12-16T21:31:02.072Z,95984.56
2022-12-16T21:33:47.586Z,95959.59
2022-12-16T21:36:32.954Z,95949.31
2022-12-16T21:39:18.159Z,95940.72
2022-12-16T21:42:03.219Z,95970.34
2022-12-16T21:44:47.940Z,95960.25
2022-12-16T21:47:32.979Z,95958.44
2022-12-16T21:50:17.667Z,95970.50
2022-12-16T21:53:05.942Z,95970.50
2022-12-16T21:55:50.994Z,95991.19
2022-12-16T21:58:36.912Z,96006.72
2022-12-16T22:01:22.018Z,96020.59
2022-12-16T22:04:07.098Z,96056.69
2022-12-16T22:06:52.109Z,96061.81
2022-12-16T22:09:37.085Z,96072.06
2022-12-16T22:12:22.124Z,96089.09
2022-12-16T22:15:07.310Z,96111.59
2022-12-16T22:17:57.942Z,96125.31
2022-12-16T22:20:43.434Z,96123.50
2022-12-16T22:23:28.625Z,96134.59
2022-12-16T22:26:15.069Z,96128.47
2022-12-16T22:28:59.856Z,96125.75
2022-12-16T22:31:44.800Z,96114.44
2022-12-16T22:34:29.979Z,96105.81
2022-12-16T22:37:14.789Z,96099.81
2022-12-16T22:39:59.532Z,96081.69
2022-12-16T22:42:44.285Z,96050.75
2022-12-16T22:45:29.048Z,96030.09
2022-12-16T22:48:14.539Z,96021.47
2022-12-16T22:50:59.271Z,96016.34
2022-12-16T22:53:44.499Z,95995.69
2022-12-16T22:56:29.608Z,95986.31
2022-12-16T22:59:14.311Z,95980.28
2022-12-16T23:01:59.179Z,95983.75
2022-12-16T23:04:43.948Z,95977.09
2022-12-16T23:07:29.056Z,95964.28
2022-12-16T23:10:13.800Z,95954.94
2022-12-16T23:12:58.732Z,95932.44
2022-12-16T23:15:43.866Z,95933.28
2022-12-16T23:18:28.801Z,95948.00
2022-12-16T23:21:13.629Z,95942.88
2022-12-16T23:23:58.498Z,95941.97
2022-12-16T23:26:43.557Z,95951.31
2022-12-16T23:29:28.691Z,95946.19
2022-12-16T23:32:13.734Z,95944.38
2022-12-16T23:34:58.413Z,95944.19
2022-12-16T23:37:43.479Z,95957.94
2022-12-16T23:40:28.912Z,95968.19
2022-12-16T23:43:13.652Z,95974.25
2022-12-16T23:45:58.512Z,95970.03
2022-12-16T23:48:43.610Z,95971.69
2022-12-16T23:51:28.353Z,95987.06
2022-12-16T23:54:13.171Z,96030.84
2022-12-16T23:56:58.113Z,96017.81
2022-12-16T23:59:42.894Z,96001.44
